Time;durP1;ratioP1;P1;durP2;ratioP2;P2;SDS_P1;SDS_P2;PMS_P1;PMS_P2;Temp;Humidity;BMP_temperature;BMP_pressure;BME280_temperature;BME280_humidity;BME280_pressure;Samples;Min_cycle;Max_cycle;Signal;HPM_P1;HPM_P2
2020/12/27 00:00:09;;;;;;;1.30;1.20;;;6.60;99.90;;;;;;5056961;28;20201;-75
2020/12/27 00:02:35;;;;;;;1.20;1.10;;;6.60;99.90;;;;;;5051733;28;20749;-76
2020/12/27 00:05:03;;;;;;;1.10;1.10;;;6.60;99.90;;;;;;5054610;28;20240;-74
2020/12/27 00:07:31;;;;;;;1.50;1.40;;;6.60;99.90;;;;;;5051926;28;20649;-76
2020/12/27 00:09:58;;;;;;;1.15;1.05;;;6.60;99.90;;;;;;5051255;28;20229;-74
2020/12/27 00:12:25;;;;;;;1.40;1.30;;;6.60;99.90;;;;;;5066648;28;20216;-76
2020/12/27 00:14:52;;;;;;;1.17;1.08;;;6.60;99.90;;;;;;5053299;28;20224;-76
2020/12/27 00:17:18;;;;;;;1.38;1.27;;;6.60;99.90;;;;;;5062512;28;20189;-75
2020/12/27 00:19:45;;;;;;;2.00;1.25;;;6.60;99.90;;;;;;5067913;28;20228;-75
2020/12/27 00:22:12;;;;;;;1.27;1.17;;;6.50;99.90;;;;;;5065284;28;20193;-76
2020/12/27 00:24:38;;;;;;;1.30;1.20;;;6.50;99.90;;;;;;5057273;28;20193;-76
2020/12/27 00:27:04;;;;;;;1.30;1.20;;;6.50;99.90;;;;;;5065604;28;20764;-77
2020/12/27 00:29:32;;;;;;;1.30;1.20;;;6.50;99.90;;;;;;5059409;28;20193;-77
2020/12/27 00:31:58;;;;;;;1.40;1.30;;;6.50;99.90;;;;;;5067067;28;20213;-75
2020/12/27 00:34:25;;;;;;;1.27;1.17;;;6.50;99.90;;;;;;5062647;28;20202;-76
2020/12/27 00:36:56;;;;;;;1.10;1.00;;;6.60;99.90;;;;;;5061655;28;20754;-76
2020/12/27 00:39:22;;;;;;;1.95;1.30;;;6.60;99.90;;;;;;5059586;28;20687;-76
2020/12/27 00:41:49;;;;;;;1.08;1.00;;;6.60;99.90;;;;;;5060803;28;20220;-76
2020/12/27 00:44:15;;;;;;;1.30;1.20;;;6.60;99.90;;;;;;5064068;28;20201;-77
2020/12/27 00:46:46;;;;;;;1.23;1.13;;;6.50;99.90;;;;;;5056286;28;20204;-76
2020/12/27 00:49:13;;;;;;;1.10;1.00;;;6.50;99.90;;;;;;5059135;28;20197;-77
2020/12/27 00:51:39;;;;;;;1.38;1.27;;;6.50;99.90;;;;;;5051570;28;20493;-75
2020/12/27 00:54:05;;;;;;;1.33;1.23;;;6.50;99.90;;;;;;5060219;28;20188;-75
2020/12/27 00:56:32;;;;;;;1.20;1.10;;;6.50;99.90;;;;;;5068950;28;20201;-77
2020/12/27 00:58:58;;;;;;;1.13;1.05;;;6.50;99.90;;;;;;5066782;28;20243;-77
2020/12/27 01:01:24;;;;;;;1.20;1.10;;;6.50;99.90;;;;;;5057499;28;20224;-77
2020/12/27 01:03:51;;;;;;;1.08;1.08;;;6.50;99.90;;;;;;5064417;28;20255;-78
2020/12/27 01:06:22;;;;;;;1.05;1.05;;;6.50;99.90;;;;;;5068849;28;20196;-76
2020/12/27 01:08:48;;;;;;;1.15;1.05;;;6.50;99.90;;;;;;5067747;28;20672;-77
2020/12/27 01:11:15;;;;;;;1.20;1.10;;;6.50;99.90;;;;;;5058635;28;20238;-76
2020/12/27 01:13:41;;;;;;;1.30;1.20;;;6.50;99.90;;;;;;5063726;28;20204;-76
2020/12/27 01:16:10;;;;;;;1.40;1.30;;;6.50;99.90;;;;;;5063596;28;20224;-76
2020/12/27 01:18:38;;;;;;;1.60;1.50;;;6.50;99.90;;;;;;5057917;28;20228;-78
2020/12/27 01:21:05;;;;;;;1.77;1.25;;;6.50;99.90;;;;;;5061047;28;20200;-76
2020/12/27 01:23:31;;;;;;;1.10;1.10;;;6.50;99.90;;;;;;5052916;28;20596;-75
2020/12/27 01:25:57;;;;;;;1.25;1.15;;;6.50;99.90;;;;;;5063452;28;20197;-76
2020/12/27 01:28:24;;;;;;;1.35;1.25;;;6.50;99.90;;;;;;5052295;28;20193;-76
2020/12/27 01:30:50;;;;;;;1.55;1.33;;;6.50;99.90;;;;;;5067997;28;20206;-74
2020/12/27 01:33:16;;;;;;;1.50;1.40;;;6.50;99.90;;;;;;5061813;28;20269;-75
2020/12/27 01:35:45;;;;;;;1.48;1.38;;;6.50;99.90;;;;;;5057676;28;20812;-76
2020/12/27 01:38:12;;;;;;;1.15;1.08;;;6.50;99.90;;;;;;5058729;28;20220;-75
2020/12/27 01:40:39;;;;;;;1.10;1.00;;;6.50;99.90;;;;;;5058638;28;20542;-77
2020/12/27 01:43:06;;;;;;;1.52;1.38;;;6.50;99.90;;;;;;5059445;28;20246;-76
2020/12/27 01:45:32;;;;;;;1.23;1.13;;;6.50;99.90;;;;;;5061320;28;20225;-76
2020/12/27 01:47:59;;;;;;;1.00;0.90;;;6.50;99.90;;;;;;5067733;28;20206;-74
2020/12/27 01:50:25;;;;;;;1.20;1.10;;;6.50;99.90;;;;;;5061844;28;20202;-76
2020/12/27 01:52:52;;;;;;;1.20;1.10;;;6.50;99.90;;;;;;5055900;28;20725;-75
2020/12/27 01:55:19;;;;;;;1.17;1.08;;;6.50;99.90;;;;;;5056749;28;20227;-76
2020/12/27 01:58:18;;;;;;;1.70;1.38;;;6.50;99.90;;;;;;5056278;28;20224;-75
2020/12/27 02:00:45;;;;;;;1.30;1.20;;;6.60;99.90;;;;;;5047512;28;20224;-77
2020/12/27 02:03:13;;;;;;;1.38;1.27;;;6.60;99.90;;;;;;5062171;28;20193;-76
2020/12/27 02:05:42;;;;;;;1.30;1.20;;;6.60;99.90;;;;;;5059974;28;20196;-75
2020/12/27 02:08:09;;;;;;;0.90;0.90;;;6.60;99.90;;;;;;5064792;28;20196;-75
2020/12/27 02:10:37;;;;;;;1.30;1.20;;;6.60;99.90;;;;;;5055194;28;20205;-77
2020/12/27 02:13:03;;;;;;;1.50;1.23;;;6.60;99.90;;;;;;5057483;28;20200;-75
2020/12/27 02:15:30;;;;;;;1.38;1.27;;;6.60;99.90;;;;;;5049475;28;20223;-75
2020/12/27 02:17:56;;;;;;;1.10;1.00;;;6.60;99.90;;;;;;5058362;28;20203;-76
2020/12/27 02:20:23;;;;;;;1.17;1.08;;;6.60;99.90;;;;;;5060018;28;20192;-77
2020/12/27 02:22:49;;;;;;;0.90;0.90;;;6.60;99.90;;;;;;5060934;28;20196;-76
2020/12/27 02:25:17;;;;;;;1.23;1.13;;;6.60;99.90;;;;;;5052825;28;20207;-75
2020/12/27 02:27:43;;;;;;;1.20;1.10;;;6.60;99.90;;;;;;5055452;28;20201;-76
2020/12/27 02:30:11;;;;;;;1.00;0.95;;;6.60;99.90;;;;;;5060835;28;20200;-74
2020/12/27 02:32:37;;;;;;;0.90;0.90;;;6.60;99.90;;;;;;5060532;28;20771;-75
2020/12/27 02:35:05;;;;;;;0.93;0.90;;;6.70;99.90;;;;;;5059321;28;20222;-76
2020/12/27 02:37:32;;;;;;;1.02;0.93;;;6.60;99.90;;;;;;5055397;28;20197;-75
2020/12/27 02:39:58;;;;;;;2.05;1.25;;;6.70;99.90;;;;;;5061954;28;20216;-76
2020/12/27 02:42:25;;;;;;;1.15;1.05;;;6.60;99.90;;;;;;5060426;28;20195;-76
2020/12/27 02:45:10;;;;;;;1.20;1.10;;;6.70;99.90;;;;;;5059229;28;20557;-75
2020/12/27 02:47:40;;;;;;;0.95;0.95;;;6.60;99.90;;;;;;5054110;28;20201;-74
2020/12/27 02:50:10;;;;;;;1.13;0.90;;;6.70;99.90;;;;;;5055240;28;20508;-76
2020/12/27 02:52:36;;;;;;;3.75;1.00;;;6.70;99.90;;;;;;5054837;28;20189;-75
2020/12/27 02:55:03;;;;;;;1.00;1.00;;;6.70;99.90;;;;;;5052894;28;20232;-76
2020/12/27 02:57:30;;;;;;;0.80;0.80;;;6.70;99.90;;;;;;5055898;28;20223;-76
2020/12/27 02:59:56;;;;;;;1.10;1.10;;;6.70;99.90;;;;;;5053948;28;20609;-76
2020/12/27 03:02:23;;;;;;;1.08;0.98;;;6.70;99.90;;;;;;5058767;28;20222;-75
2020/12/27 03:04:49;;;;;;;1.20;1.10;;;6.60;99.90;;;;;;5059836;28;20222;-75
2020/12/27 03:07:16;;;;;;;0.80;0.80;;;6.70;99.90;;;;;;5058850;28;20190;-76
2020/12/27 03:09:42;;;;;;;1.10;1.00;;;6.70;99.90;;;;;;5062456;28;20307;-77
2020/12/27 03:12:08;;;;;;;0.95;0.93;;;6.60;99.90;;;;;;5058701;28;20726;-75
2020/12/27 03:14:35;;;;;;;1.10;1.00;;;6.70;99.90;;;;;;5061440;28;20284;-77
2020/12/27 03:17:02;;;;;;;1.10;1.00;;;6.60;99.90;;;;;;5061103;28;20199;-76
2020/12/27 03:19:28;;;;;;;1.10;1.00;;;6.70;99.90;;;;;;5066244;28;20224;-76
2020/12/27 03:21:54;;;;;;;1.00;0.90;;;6.70;99.90;;;;;;5063775;28;20200;-75
2020/12/27 03:24:21;;;;;;;1.00;0.90;;;6.70;99.90;;;;;;5066478;28;20189;-76
2020/12/27 03:26:47;;;;;;;1.10;1.00;;;6.70;99.90;;;;;;5063130;28;20208;-77
2020/12/27 03:29:13;;;;;;;0.90;0.90;;;6.70;99.90;;;;;;5060195;28;20204;-76
2020/12/27 03:31:40;;;;;;;1.20;0.82;;;6.70;99.90;;;;;;5062794;28;20222;-75
2020/12/27 03:34:07;;;;;;;1.17;1.08;;;6.70;99.90;;;;;;5059176;28;20201;-75
2020/12/27 03:36:33;;;;;;;1.02;0.93;;;6.70;99.90;;;;;;5069160;28;20216;-77
2020/12/27 03:39:00;;;;;;;1.20;1.10;;;6.80;99.90;;;;;;5057572;28;20237;-76
2020/12/27 03:41:26;;;;;;;0.90;0.90;;;6.80;99.90;;;;;;5066085;28;20649;-75
2020/12/27 03:43:52;;;;;;;1.02;1.02;;;6.80;99.90;;;;;;5062837;28;20202;-75
2020/12/27 03:46:19;;;;;;;0.90;0.80;;;6.80;99.90;;;;;;5065614;28;20282;-74
2020/12/27 03:48:46;;;;;;;1.00;0.90;;;6.80;99.90;;;;;;5062398;28;20189;-75
2020/12/27 03:51:12;;;;;;;1.15;1.05;;;6.80;99.90;;;;;;5067991;28;20202;-77
2020/12/27 03:53:39;;;;;;;1.02;0.93;;;6.80;99.90;;;;;;5062990;28;20676;-76
2020/12/27 03:56:05;;;;;;;0.93;0.93;;;6.70;99.90;;;;;;5066463;28;20200;-75
2020/12/27 03:58:31;;;;;;;0.95;0.90;;;6.80;99.90;;;;;;5059844;28;20229;-76
2020/12/27 04:00:58;;;;;;;0.95;0.85;;;6.80;99.90;;;;;;5061122;28;20228;-77
2020/12/27 04:03:24;;;;;;;0.90;0.90;;;6.80;99.90;;;;;;5057031;28;20200;-76
2020/12/27 04:05:51;;;;;;;1.52;0.88;;;6.80;99.90;;;;;;5061224;28;20184;-77
2020/12/27 04:08:18;;;;;;;1.30;0.88;;;6.80;99.90;;;;;;5066889;28;20209;-76
2020/12/27 04:10:44;;;;;;;1.10;1.00;;;6.80;99.90;;;;;;5054675;28;20596;-76
2020/12/27 04:13:10;;;;;;;1.05;0.95;;;6.80;99.90;;;;;;5062145;28;20208;-77
2020/12/27 04:15:37;;;;;;;1.25;0.90;;;6.80;99.90;;;;;;5065658;28;20197;-76
2020/12/27 04:18:04;;;;;;;0.70;0.70;;;6.90;99.90;;;;;;5062549;28;20254;-76
2020/12/27 04:20:30;;;;;;;0.90;0.90;;;6.90;99.90;;;;;;5056628;28;20248;-77
2020/12/27 04:22:57;;;;;;;0.90;0.80;;;6.90;99.90;;;;;;5058148;28;20460;-76
2020/12/27 04:25:24;;;;;;;0.80;0.80;;;6.90;99.90;;;;;;5069803;28;20254;-76
2020/12/27 04:27:50;;;;;;;0.90;0.90;;;6.90;99.90;;;;;;5066620;28;20851;-75
2020/12/27 04:30:16;;;;;;;0.88;0.80;;;6.90;99.90;;;;;;5057805;28;20288;-75
2020/12/27 04:32:43;;;;;;;0.80;0.80;;;6.90;99.90;;;;;;5065080;28;20299;-75
2020/12/27 04:35:09;;;;;;;0.80;0.73;;;7.00;99.90;;;;;;5063032;28;20188;-77
2020/12/27 04:37:36;;;;;;;0.80;0.80;;;7.00;99.90;;;;;;5065030;28;20246;-76
2020/12/27 04:40:03;;;;;;;0.90;0.90;;;7.00;99.90;;;;;;5058209;28;20221;-75
2020/12/27 04:42:30;;;;;;;1.20;0.80;;;6.90;99.90;;;;;;5056429;28;20223;-76
2020/12/27 04:44:57;;;;;;;0.70;0.70;;;7.00;99.90;;;;;;5057130;28;20647;-77
2020/12/27 04:47:24;;;;;;;0.98;0.98;;;7.00;99.90;;;;;;5060163;28;20254;-77
2020/12/27 04:49:51;;;;;;;0.70;0.70;;;7.00;99.90;;;;;;5060422;28;20201;-76
2020/12/27 04:52:21;;;;;;;0.80;0.80;;;7.00;99.90;;;;;;5062096;28;20207;-77
2020/12/27 04:54:51;;;;;;;0.80;0.80;;;7.00;99.90;;;;;;5064239;28;20207;-75
2020/12/27 04:57:19;;;;;;;0.95;0.80;;;7.00;99.90;;;;;;5059378;28;20196;-75
2020/12/27 04:59:47;;;;;;;0.80;0.80;;;7.00;99.90;;;;;;5054074;28;20266;-76
2020/12/27 05:02:14;;;;;;;0.80;0.80;;;7.00;99.90;;;;;;5057268;28;20348;-76
2020/12/27 05:04:42;;;;;;;0.80;0.80;;;7.00;99.90;;;;;;5052967;28;21241;-75
2020/12/27 05:07:09;;;;;;;1.75;0.90;;;7.00;99.90;;;;;;5053544;28;20189;-75
2020/12/27 05:09:35;;;;;;;0.80;0.80;;;7.00;99.90;;;;;;5062177;28;20669;-77
2020/12/27 05:12:02;;;;;;;0.80;0.80;;;7.10;99.90;;;;;;5054589;28;20221;-75
2020/12/27 05:14:30;;;;;;;0.80;0.80;;;7.10;99.90;;;;;;5061282;28;20216;-75
2020/12/27 05:16:58;;;;;;;0.90;0.90;;;7.10;99.90;;;;;;5059697;28;20201;-77
2020/12/27 05:19:25;;;;;;;0.80;0.80;;;7.10;99.90;;;;;;5059231;28;20226;-76
2020/12/27 05:21:54;;;;;;;0.80;0.80;;;7.00;99.90;;;;;;5059145;28;20197;-76
2020/12/27 05:24:20;;;;;;;1.15;1.05;;;7.10;99.90;;;;;;5062398;28;20193;-77
2020/12/27 05:26:47;;;;;;;1.00;0.90;;;7.10;99.90;;;;;;5059336;28;20556;-77
2020/12/27 05:29:31;;;;;;;0.80;0.80;;;7.10;99.90;;;;;;5063975;28;20204;-77
2020/12/27 05:31:59;;;;;;;1.00;0.90;;;7.10;99.90;;;;;;5057339;28;20200;-76
2020/12/27 05:34:26;;;;;;;1.02;1.02;;;7.10;99.90;;;;;;5057001;28;20660;-76
2020/12/27 05:36:55;;;;;;;1.00;0.90;;;7.10;99.90;;;;;;5061525;28;20677;-77
2020/12/27 05:39:21;;;;;;;2.13;0.80;;;7.10;99.90;;;;;;5056994;28;20225;-75
2020/12/27 05:41:47;;;;;;;0.80;0.80;;;7.10;99.90;;;;;;5063105;28;20204;-77
2020/12/27 05:44:17;;;;;;;1.05;1.05;;;7.10;99.90;;;;;;5058610;28;20197;-75
2020/12/27 05:46:46;;;;;;;0.90;0.90;;;7.10;99.90;;;;;;5062597;28;20239;-77
2020/12/27 05:49:12;;;;;;;2.78;1.10;;;7.10;99.90;;;;;;5067387;28;20228;-76
2020/12/27 05:51:50;;;;;;;0.90;0.90;;;7.10;99.90;;;;;;5064436;28;20389;-75
2020/12/27 05:54:29;;;;;;;1.25;0.98;;;7.10;99.90;;;;;;5061352;28;20250;-77
2020/12/27 05:56:57;;;;;;;0.90;0.90;;;7.20;99.90;;;;;;5054596;28;20193;-75
2020/12/27 05:59:29;;;;;;;1.60;1.17;;;7.20;99.90;;;;;;5060472;28;20224;-77
2020/12/27 06:01:57;;;;;;;1.45;1.20;;;7.20;99.90;;;;;;5056968;28;20229;-76
2020/12/27 06:05:07;;;;;;;1.70;1.05;;;7.20;99.90;;;;;;5063112;28;20247;-76
2020/12/27 06:07:36;;;;;;;0.85;0.85;;;7.20;99.90;;;;;;5056620;28;20204;-77
2020/12/27 06:10:11;;;;;;;0.80;0.80;;;7.10;99.90;;;;;;5059522;28;20206;-75
2020/12/27 06:13:06;;;;;;;0.95;0.88;;;7.20;99.90;;;;;;5057367;28;20980;-76
2020/12/27 06:15:36;;;;;;;0.90;0.90;;;7.20;99.90;;;;;;5055130;28;20216;-77
2020/12/27 06:18:11;;;;;;;0.95;0.90;;;7.20;99.90;;;;;;5055933;28;20204;-75
2020/12/27 06:20:38;;;;;;;0.80;0.80;;;7.20;99.90;;;;;;5062297;28;20224;-77
2020/12/27 06:23:06;;;;;;;0.80;0.80;;;7.20;99.90;;;;;;5057700;28;20193;-76
2020/12/27 06:25:32;;;;;;;0.90;0.90;;;7.20;99.90;;;;;;5056359;28;20194;-75
2020/12/27 06:28:00;;;;;;;1.25;1.15;;;7.20;99.90;;;;;;5055894;28;20658;-77
2020/12/27 06:30:31;;;;;;;1.40;1.30;;;7.20;99.90;;;;;;5061905;28;20242;-75
2020/12/27 06:33:01;;;;;;;1.35;1.25;;;7.20;99.90;;;;;;5059611;28;20201;-75
2020/12/27 06:35:33;;;;;;;1.52;1.38;;;7.20;99.90;;;;;;5059862;28;20815;-76
2020/12/27 06:38:00;;;;;;;1.40;1.30;;;7.20;99.90;;;;;;5063734;28;20257;-75
2020/12/27 06:40:27;;;;;;;0.90;0.90;;;7.30;99.90;;;;;;5067686;28;20247;-75
2020/12/27 06:43:13;;;;;;;2.13;1.58;;;7.30;99.90;;;;;;5060833;28;20236;-77
2020/12/27 06:45:40;;;;;;;0.95;0.80;;;7.30;99.90;;;;;;5057172;28;20257;-75
2020/12/27 06:48:06;;;;;;;0.80;0.80;;;7.30;99.90;;;;;;5059395;28;20208;-75
2020/12/27 06:50:43;;;;;;;0.80;0.80;;;7.30;99.90;;;;;;5064408;28;20193;-75
2020/12/27 06:53:11;;;;;;;0.73;0.73;;;7.30;99.90;;;;;;5059402;28;20192;-75
2020/12/27 06:55:39;;;;;;;0.85;0.85;;;7.30;99.90;;;;;;5066844;28;20502;-74
2020/12/27 06:58:18;;;;;;;1.40;0.95;;;7.30;99.90;;;;;;5055605;28;20201;-76
2020/12/27 07:00:45;;;;;;;1.23;1.13;;;7.30;99.90;;;;;;5056088;28;20224;-75
2020/12/27 07:03:15;;;;;;;1.10;0.90;;;7.30;99.90;;;;;;5059348;28;20591;-77
2020/12/27 07:05:43;;;;;;;0.85;0.85;;;7.40;99.90;;;;;;5059291;28;20536;-75
2020/12/27 07:08:11;;;;;;;0.90;0.90;;;7.40;99.90;;;;;;5058973;28;20197;-75
2020/12/27 07:10:41;;;;;;;0.90;0.90;;;7.40;99.90;;;;;;5066714;28;20207;-75
2020/12/27 07:13:09;;;;;;;0.80;0.80;;;7.40;99.90;;;;;;5060286;28;20275;-77
2020/12/27 07:15:45;;;;;;;1.00;0.90;;;7.40;99.90;;;;;;5064109;28;20189;-76
2020/12/27 07:18:11;;;;;;;0.88;0.88;;;7.40;99.90;;;;;;5055489;28;20294;-75
2020/12/27 07:20:44;;;;;;;0.80;0.80;;;7.40;99.90;;;;;;5058201;28;20233;-76
2020/12/27 07:23:12;;;;;;;0.80;0.80;;;7.40;99.90;;;;;;5065084;28;20222;-77
2020/12/27 07:25:43;;;;;;;0.80;0.80;;;7.40;99.90;;;;;;5058438;28;20651;-75
2020/12/27 07:28:10;;;;;;;1.10;0.93;;;7.40;99.90;;;;;;5056181;28;20196;-75
2020/12/27 07:30:37;;;;;;;0.80;0.80;;;7.40;99.90;;;;;;5060074;28;20197;-77
2020/12/27 07:33:09;;;;;;;0.90;0.90;;;7.40;99.90;;;;;;5061322;28;20558;-75
2020/12/27 07:35:36;;;;;;;0.90;0.90;;;7.40;99.90;;;;;;5063144;28;20196;-76
2020/12/27 07:38:06;;;;;;;1.00;0.90;;;7.40;99.90;;;;;;5048468;28;20197;-77
2020/12/27 07:40:34;;;;;;;0.70;0.70;;;7.50;99.90;;;;;;5056299;28;20228;-76
2020/12/27 07:43:02;;;;;;;0.80;0.80;;;7.50;99.90;;;;;;5054182;28;20196;-76
2020/12/27 07:45:28;;;;;;;3.33;0.80;;;7.50;99.90;;;;;;5069170;28;20630;-77
2020/12/27 07:47:55;;;;;;;0.80;0.80;;;7.50;99.90;;;;;;5055986;28;20201;-76
2020/12/27 07:50:22;;;;;;;0.95;0.88;;;7.50;99.90;;;;;;5054269;28;20289;-75
2020/12/27 07:52:56;;;;;;;0.88;0.88;;;7.50;99.90;;;;;;5050398;28;20194;-76
2020/12/27 07:55:31;;;;;;;1.10;1.00;;;7.50;99.90;;;;;;5050621;28;20189;-76
2020/12/27 07:58:00;;;;;;;1.17;0.90;;;7.50;99.90;;;;;;5063756;28;20537;-75
2020/12/27 08:00:29;;;;;;;0.80;0.80;;;7.50;99.90;;;;;;5064124;28;20224;-76
2020/12/27 08:02:55;;;;;;;1.00;0.90;;;7.50;99.90;;;;;;5062961;28;20288;-77
2020/12/27 08:05:22;;;;;;;0.82;0.82;;;7.50;99.90;;;;;;5052869;28;20220;-76
2020/12/27 08:07:49;;;;;;;1.38;0.90;;;7.50;99.90;;;;;;5057373;28;20283;-77
2020/12/27 08:10:21;;;;;;;0.90;0.90;;;7.50;99.90;;;;;;5064498;28;20195;-76
2020/12/27 08:12:50;;;;;;;0.80;0.80;;;7.50;99.90;;;;;;5055778;28;20286;-76
2020/12/27 08:15:16;;;;;;;0.80;0.80;;;7.60;99.90;;;;;;5065855;28;20201;-77
2020/12/27 08:17:59;;;;;;;0.80;0.80;;;7.60;99.90;;;;;;5062368;28;20196;-76
2020/12/27 08:20:27;;;;;;;0.85;0.80;;;7.60;99.90;;;;;;5062976;28;20230;-76
2020/12/27 08:22:58;;;;;;;0.88;0.80;;;7.60;99.90;;;;;;5062984;28;20193;-77
2020/12/27 08:25:25;;;;;;;0.80;0.80;;;7.60;99.90;;;;;;5060080;28;20202;-76
2020/12/27 08:27:57;;;;;;;1.45;0.80;;;7.60;99.90;;;;;;5070890;28;20198;-76
2020/12/27 08:30:24;;;;;;;1.40;1.00;;;7.60;99.90;;;;;;5058026;28;20204;-76
2020/12/27 08:33:03;;;;;;;0.75;0.73;;;7.70;99.90;;;;;;5058262;28;20200;-75
2020/12/27 08:35:29;;;;;;;0.80;0.80;;;7.70;99.90;;;;;;5061249;28;20200;-76
2020/12/27 08:38:13;;;;;;;0.98;0.98;;;7.70;99.90;;;;;;5058080;28;20243;-75
2020/12/27 08:40:44;;;;;;;0.93;0.82;;;7.70;99.90;;;;;;5058703;28;20225;-75
2020/12/27 08:43:19;;;;;;;0.90;0.80;;;7.70;99.90;;;;;;5065054;28;20227;-75
2020/12/27 08:45:56;;;;;;;0.95;0.95;;;7.70;99.90;;;;;;5060886;28;20254;-76
2020/12/27 08:48:30;;;;;;;1.10;1.00;;;7.80;99.90;;;;;;5057799;28;20200;-77
2020/12/27 08:51:01;;;;;;;0.90;0.90;;;7.80;99.90;;;;;;5053848;28;20196;-77
2020/12/27 08:53:28;;;;;;;0.80;0.80;;;7.80;99.90;;;;;;5051236;28;20199;-75
2020/12/27 08:56:00;;;;;;;0.95;0.80;;;7.80;99.90;;;;;;5059822;28;20219;-77
2020/12/27 08:58:27;;;;;;;1.05;1.00;;;7.80;99.90;;;;;;5060182;28;20216;-77
2020/12/27 09:00:54;;;;;;;0.90;0.90;;;7.80;99.90;;;;;;5060222;28;20301;-77
2020/12/27 09:03:20;;;;;;;0.80;0.80;;;7.80;99.90;;;;;;5056516;28;20185;-77
2020/12/27 09:05:46;;;;;;;1.00;0.90;;;7.80;99.90;;;;;;5056739;28;20192;-76
2020/12/27 09:08:18;;;;;;;1.00;0.90;;;7.80;99.90;;;;;;5059974;28;20530;-77
2020/12/27 09:10:44;;;;;;;1.10;1.00;;;7.80;99.90;;;;;;5071430;28;20203;-77
2020/12/27 09:13:12;;;;;;;1.00;0.90;;;7.80;99.90;;;;;;5054942;28;20675;-77
2020/12/27 09:15:44;;;;;;;1.13;1.05;;;7.80;99.90;;;;;;5051685;28;20670;-77
2020/12/27 09:18:12;;;;;;;1.08;0.98;;;7.80;99.90;;;;;;5053931;28;20200;-76
2020/12/27 09:20:40;;;;;;;1.00;0.90;;;7.80;99.90;;;;;;5057344;28;20226;-77
2020/12/27 09:23:14;;;;;;;0.90;0.90;;;7.80;99.90;;;;;;5058784;28;20196;-75
2020/12/27 09:25:41;;;;;;;0.80;0.80;;;7.80;99.90;;;;;;5062304;28;20232;-76
2020/12/27 09:28:15;;;;;;;0.90;0.90;;;7.80;99.90;;;;;;5061493;28;20200;-76
2020/12/27 09:30:43;;;;;;;0.90;0.88;;;7.80;99.90;;;;;;5057733;28;20284;-81
2020/12/27 09:33:10;;;;;;;0.80;0.80;;;7.80;99.90;;;;;;5058617;28;20238;-84
2020/12/27 09:35:36;;;;;;;1.10;1.00;;;7.80;99.90;;;;;;5059204;28;20292;-80
2020/12/27 09:38:03;;;;;;;1.00;0.90;;;7.80;99.90;;;;;;5059637;28;20203;-82
2020/12/27 09:40:29;;;;;;;1.10;1.00;;;7.80;99.90;;;;;;5058960;28;20236;-86
2020/12/27 09:43:03;;;;;;;0.90;0.90;;;7.80;99.90;;;;;;5052466;28;20189;-83
2020/12/27 09:45:31;;;;;;;0.90;0.90;;;7.80;99.90;;;;;;5058458;28;20206;-84
2020/12/27 09:48:00;;;;;;;0.80;0.80;;;7.80;99.90;;;;;;5059970;28;20204;-81
2020/12/27 09:50:31;;;;;;;1.08;0.98;;;7.90;99.90;;;;;;5060676;28;20657;-78
2020/12/27 09:52:58;;;;;;;0.90;0.90;;;7.80;99.90;;;;;;5059552;28;20198;-81
2020/12/27 09:55:26;;;;;;;1.02;0.90;;;7.80;99.90;;;;;;5064624;28;20200;-76
2020/12/27 09:57:52;;;;;;;1.10;1.00;;;7.80;99.90;;;;;;5057513;28;20245;-81
2020/12/27 10:00:19;;;;;;;2.92;0.90;;;7.90;99.90;;;;;;5057258;28;20555;-83
2020/12/27 10:02:46;;;;;;;2.30;1.17;;;7.90;99.90;;;;;;5055039;28;20236;-77
2020/12/27 10:05:13;;;;;;;0.90;0.90;;;7.90;99.90;;;;;;5066554;28;20198;-81
2020/12/27 10:07:40;;;;;;;1.40;1.15;;;7.90;99.90;;;;;;5054747;28;20198;-81
2020/12/27 10:10:07;;;;;;;1.10;1.00;;;7.90;99.90;;;;;;5063596;28;20201;-82
2020/12/27 10:12:34;;;;;;;1.60;1.00;;;7.90;99.90;;;;;;5056028;28;20849;-81
2020/12/27 10:15:01;;;;;;;1.55;1.00;;;7.90;99.90;;;;;;5062524;28;20544;-85
2020/12/27 10:17:28;;;;;;;1.10;1.00;;;7.90;99.90;;;;;;5055614;28;20200;-82
2020/12/27 10:19:54;;;;;;;1.20;1.10;;;7.90;99.90;;;;;;5054024;28;20219;-76
2020/12/27 10:22:21;;;;;;;1.10;1.00;;;7.90;99.90;;;;;;5047725;28;20203;-78
2020/12/27 10:24:48;;;;;;;1.63;1.05;;;7.90;99.90;;;;;;5063030;28;20189;-76
2020/12/27 10:27:14;;;;;;;1.13;1.05;;;7.90;99.90;;;;;;5056149;28;20202;-77
2020/12/27 10:29:40;;;;;;;1.60;0.90;;;7.90;99.90;;;;;;5065286;28;20205;-75
2020/12/27 10:32:08;;;;;;;1.00;0.90;;;7.90;99.90;;;;;;5059171;28;20577;-76
2020/12/27 10:34:35;;;;;;;1.00;1.00;;;7.90;99.90;;;;;;5052192;28;20198;-75
2020/12/27 10:37:02;;;;;;;5.55;0.98;;;7.90;99.90;;;;;;5049369;28;20193;-74
2020/12/27 10:39:30;;;;;;;0.93;0.88;;;7.90;99.90;;;;;;5047344;28;20221;-75
2020/12/27 10:41:57;;;;;;;1.20;1.10;;;7.90;99.90;;;;;;5058081;28;20193;-76
2020/12/27 10:44:25;;;;;;;5.95;1.25;;;7.90;99.90;;;;;;5052770;28;20229;-74
2020/12/27 10:46:51;;;;;;;0.80;0.80;;;7.90;99.90;;;;;;5052473;28;20189;-75
2020/12/27 10:49:18;;;;;;;1.20;1.10;;;7.90;99.90;;;;;;5053760;28;20197;-76
2020/12/27 10:51:45;;;;;;;1.00;0.90;;;7.90;99.90;;;;;;5054717;28;20236;-75
2020/12/27 10:54:12;;;;;;;1.05;0.98;;;7.90;99.90;;;;;;5050594;28;20225;-77
2020/12/27 10:56:40;;;;;;;1.30;1.00;;;7.90;99.90;;;;;;5056188;28;20225;-77
2020/12/27 10:59:06;;;;;;;1.20;1.05;;;7.90;99.90;;;;;;5049282;28;20424;-75
2020/12/27 11:01:33;;;;;;;1.00;0.90;;;7.90;99.90;;;;;;5054445;28;20251;-74
2020/12/27 11:04:00;;;;;;;1.23;1.00;;;7.90;99.90;;;;;;5050330;28;20201;-76
2020/12/27 11:06:30;;;;;;;0.80;0.80;;;7.90;99.90;;;;;;5051418;28;20200;-75
2020/12/27 11:08:57;;;;;;;0.90;0.90;;;7.90;99.90;;;;;;5056244;28;20195;-75
2020/12/27 11:11:23;;;;;;;1.05;1.00;;;7.80;99.90;;;;;;5048723;28;20216;-75
2020/12/27 11:13:50;;;;;;;0.88;0.88;;;7.90;99.90;;;;;;5055532;28;20213;-76
2020/12/27 11:16:17;;;;;;;1.30;1.20;;;7.80;99.90;;;;;;5056984;28;20668;-76
2020/12/27 11:18:43;;;;;;;0.88;0.88;;;7.80;99.90;;;;;;5053327;28;20205;-77
2020/12/27 11:21:10;;;;;;;0.90;0.90;;;7.80;99.90;;;;;;5053169;28;20560;-76
2020/12/27 11:23:36;;;;;;;0.80;0.80;;;7.80;99.90;;;;;;5056777;28;20191;-75
2020/12/27 11:26:03;;;;;;;0.98;0.98;;;7.80;99.90;;;;;;5055562;28;20200;-74
2020/12/27 11:28:29;;;;;;;1.13;1.02;;;7.70;99.90;;;;;;5063168;28;20193;-75
2020/12/27 11:30:56;;;;;;;2.10;1.45;;;7.80;99.90;;;;;;5055901;28;20198;-75
2020/12/27 11:33:23;;;;;;;5.72;2.90;;;7.80;99.90;;;;;;5055295;28;20201;-77
2020/12/27 11:35:49;;;;;;;13.10;7.40;;;7.80;99.90;;;;;;5049155;28;20189;-73
2020/12/27 11:38:15;;;;;;;18.67;7.75;;;7.80;99.90;;;;;;5053734;28;20193;-76
2020/12/27 11:40:42;;;;;;;20.38;9.73;;;7.80;99.90;;;;;;5052855;28;20218;-75
2020/12/27 11:43:08;;;;;;;3.72;2.75;;;7.80;99.90;;;;;;5049494;28;20691;-76
2020/12/27 11:45:34;;;;;;;1.33;1.23;;;7.80;99.90;;;;;;5059764;28;20699;-75
2020/12/27 11:48:02;;;;;;;1.52;1.10;;;7.80;99.90;;;;;;5063502;28;20215;-75
2020/12/27 11:50:28;;;;;;;0.90;0.90;;;7.80;99.90;;;;;;5060931;28;20189;-76
2020/12/27 11:52:54;;;;;;;1.17;1.08;;;7.80;99.90;;;;;;5062313;28;20184;-75
2020/12/27 11:55:21;;;;;;;1.45;1.15;;;7.80;99.90;;;;;;5059111;28;20230;-75
2020/12/27 11:57:48;;;;;;;1.92;1.20;;;7.80;99.90;;;;;;5061314;28;20224;-74
2020/12/27 12:00:14;;;;;;;1.40;1.30;;;7.70;99.90;;;;;;5054477;28;20217;-75
2020/12/27 12:02:41;;;;;;;1.45;1.35;;;7.70;99.90;;;;;;5062946;28;20654;-75
2020/12/27 12:05:09;;;;;;;1.60;1.50;;;7.70;99.90;;;;;;5053312;28;20194;-75
2020/12/27 12:07:36;;;;;;;1.65;1.55;;;7.60;99.90;;;;;;5057258;28;20200;-76
2020/12/27 12:10:02;;;;;;;2.80;1.10;;;7.60;99.90;;;;;;5054501;28;20197;-74
2020/12/27 12:12:29;;;;;;;1.30;1.20;;;7.60;99.90;;;;;;5058582;28;20549;-76
2020/12/27 12:14:55;;;;;;;2.10;1.80;;;7.60;99.90;;;;;;5055418;28;20221;-74
2020/12/27 12:17:21;;;;;;;1.42;1.33;;;7.60;99.90;;;;;;5052374;28;20195;-75
2020/12/27 12:19:48;;;;;;;1.05;0.95;;;7.60;99.90;;;;;;5057086;28;20297;-81
2020/12/27 12:22:15;;;;;;;1.08;0.98;;;7.50;99.90;;;;;;5059606;28;20193;-74
2020/12/27 12:24:41;;;;;;;1.45;1.35;;;7.50;99.90;;;;;;5058572;28;20201;-74
2020/12/27 12:27:08;;;;;;;1.50;1.40;;;7.50;99.90;;;;;;5053342;28;20228;-75
2020/12/27 12:29:34;;;;;;;1.50;1.40;;;7.50;99.90;;;;;;5048857;28;20209;-75
2020/12/27 12:32:00;;;;;;;1.70;1.60;;;7.50;99.90;;;;;;5056975;28;20197;-75
2020/12/27 12:34:27;;;;;;;1.55;1.45;;;7.50;99.90;;;;;;5059580;28;20231;-77
2020/12/27 12:36:53;;;;;;;1.70;1.60;;;7.50;99.90;;;;;;5061771;28;20204;-74
2020/12/27 12:39:20;;;;;;;2.00;1.80;;;7.50;99.90;;;;;;5065882;28;20209;-79
2020/12/27 12:41:46;;;;;;;1.85;1.75;;;7.50;99.90;;;;;;5065626;28;20191;-79
2020/12/27 12:44:13;;;;;;;2.25;2.05;;;7.40;99.90;;;;;;5066669;28;20284;-79
2020/12/27 12:46:39;;;;;;;1.90;1.80;;;7.40;99.90;;;;;;5068683;28;20270;-77
2020/12/27 12:49:06;;;;;;;2.72;2.45;;;7.50;99.90;;;;;;5066015;28;20671;-77
2020/12/27 12:51:32;;;;;;;3.08;2.78;;;7.50;99.90;;;;;;5066076;28;20199;-79
2020/12/27 12:53:58;;;;;;;1.70;1.48;;;7.50;99.90;;;;;;5067826;28;20668;-79
2020/12/27 12:56:26;;;;;;;1.45;1.33;;;7.40;99.90;;;;;;5065229;28;20251;-78
2020/12/27 12:58:52;;;;;;;1.60;1.50;;;7.40;99.90;;;;;;5064544;28;20197;-81
2020/12/27 13:01:18;;;;;;;3.70;2.75;;;7.40;99.90;;;;;;5060799;28;20260;-78